Cedar City, UT (84721)

5:01 PM MDT on October 20, 2014 (GMT -0600)
Fremont mounds | Change Station
CLOSE
Current Station
Personal Weather Station
Location: Paragonah, UT
Elevation: 5873 ft
Nearby Weather Stations

Elev 5873 ft 37.89 °N, 112.77 °W | Updated 45 seconds ago

Partly Cloudy
Partly Cloudy
72.1 °F
Feels Like 77 °F
N
1.6
Wind Variable Wind from WSW

Today
High -- | Low -- °F
--% Chance of Precip.
Yesterday
High -- | Low -- °F
Precip. -- in
7:44 AM 6:46 PM
Waning Crescent, 8% visible
Pressure 29.85 in
Visibility 10.0 miles
Clouds Mostly Cloudy 8500 ft
Overcast 11000 ft
Heat Index 77 °F
Dew Point 43 °F
Humidity 35%
Rainfall 0.00 in
Snow Depth Not available.
UV 1 out of 12
Pollen 4.10 out of 12
Air Quality Not available.
Flu Activity Sporadic
METAR KCDC 202253Z AUTO 20010G17KT 160V230 10SM BKN085 OVC110 23/02 A3002 RMK AO2 SLP108 T02280022 TSNO

More Conditions Fewer Conditions

Pressure 29.85 in
Visibility 10.0 miles
Clouds Mostly Cloudy 8500 ft
Overcast 11000 ft
Heat Index 77 °F
Dew Point 43 °F
Humidity 35%
Rainfall 0.00 in
Snow Depth Not available.
UV 1 out of 12
Pollen 4.10 out of 12
Air Quality Not available.
Flu Activity Sporadic
METAR KCDC 202253Z AUTO 20010G17KT 160V230 10SM BKN085 OVC110 23/02 A3002 RMK AO2 SLP108 T02280022 TSNO

More Conditions Fewer Conditions

10-Day Weather Forecast

Almanac

Astronomy

Oct. 20, 2014 Rise Set
Actual Time 7:44 AM MDT 6:46 PM MDT
Civil Twilight 7:18 AM MDT 7:13 PM MDT
Nautical Twilight 6:47 AM MDT 7:44 PM MDT
Astronomical Twilight 6:16 AM MDT 8:14 PM MDT
Moon 4:39 AM MDT 5:08 PM MDT
Length of Visible Light 11h 55m
Length of Day
11h 02m
Waning Crescent, 8% of the Moon is Illuminated
Today
Waning Crescent
Oct 23
New
Oct 30
First Quarter
Nov 6
Full
Nov 14
Last Quarter

Today's Extremes

State Highs State Lows

Community

WunderPhotos

Upload Photos

1,763,544 photos uploaded!

WunderBlogs® & News

By Dr. Jeff Masters
Director of Meteorology, Weather Underground
By Kari Strenfel
Meteorologist, Weather Underground
By Christopher C. Burt
Weather Historian, Weather Underground
October 20, 2014
October 20, 2014
October 20, 2014

Nearby

Snow Depth

Station Depth Elevation
Long Valley Jct 1 in 7360 ft
Agua Canyon 0 in 8900 ft
Box Creek 0 in 9800 ft
Gooseberry R.S. 0 in 7920 ft
Seeley Creek 0 in 10000 ft

Earthquake Activity

City Distance Mag. Time & Date
No recent earthquake activity has been reported nearby.
Minimum magnitude displayed is 2.5.

Coastal Water Temperatures

Place Temperature
No Stations Reporting

Nearby Weather Stations